createdAt,value
2017-04-24T00:00:31.194Z,80.75
2017-04-24T00:01:12.070Z,80.94
2017-04-24T00:01:52.955Z,81.41
2017-04-24T00:02:33.818Z,80.75
2017-04-24T00:03:14.689Z,80.71
2017-04-24T00:03:55.558Z,80.71
2017-04-24T00:04:36.441Z,80.9
2017-04-24T00:05:17.320Z,80.99
2017-04-24T00:05:58.196Z,81.09
2017-04-24T00:06:39.070Z,81.85
2017-04-24T00:07:19.989Z,81.47
2017-04-24T00:08:00.872Z,81.56
2017-04-24T00:08:41.734Z,81.85
2017-04-24T00:09:22.613Z,81.56
2017-04-24T00:10:03.496Z,82.04
2017-04-24T00:11:31.564Z,81.47
2017-04-24T00:12:12.442Z,81.32
2017-04-24T00:12:53.327Z,80.99
2017-04-24T00:13:34.199Z,81.27
2017-04-24T00:14:15.059Z,81.66
2017-04-24T00:14:55.947Z,81.47
2017-04-24T00:15:36.827Z,81.37
2017-04-24T00:16:17.714Z,82.04
2017-04-24T00:16:58.578Z,82.13
2017-04-24T00:17:39.447Z,82.32
2017-04-24T00:18:20.336Z,83.08
2017-04-24T00:19:01.188Z,82.7
2017-04-24T00:19:42.069Z,82.6
2017-04-24T00:20:22.944Z,82.6
2017-04-24T00:21:03.825Z,82.6
2017-04-24T00:21:44.690Z,82.23
2017-04-24T00:22:25.557Z,82.13
2017-04-24T00:23:06.423Z,82.32
2017-04-24T00:23:47.306Z,82.89
2017-04-24T00:24:28.190Z,82.7
2017-04-24T00:25:09.058Z,82.7
2017-04-24T00:25:49.934Z,82.7
2017-04-24T00:26:30.805Z,82.79
2017-04-24T00:27:11.704Z,82.7
2017-04-24T00:27:52.580Z,82.79
2017-04-24T00:28:33.466Z,82.51
2017-04-24T00:29:14.339Z,82.7
2017-04-24T00:29:55.221Z,82.89
2017-04-24T00:30:36.097Z,82.51
2017-04-24T00:31:16.980Z,82.89
2017-04-24T00:31:57.862Z,83.27
2017-04-24T00:32:38.738Z,83.27
2017-04-24T00:33:19.609Z,83.74
2017-04-24T00:34:00.505Z,83.17
2017-04-24T00:34:41.390Z,83.27
2017-04-24T00:35:22.268Z,83.36
2017-04-24T00:36:03.111Z,83.55
2017-04-24T00:36:43.980Z,83.94
2017-04-24T00:37:24.894Z,83.17
2017-04-24T00:38:05.783Z,83.17
2017-04-24T00:38:46.659Z,83.94
2017-04-24T00:39:27.508Z,83.94
2017-04-24T00:40:08.377Z,83.46
2017-04-24T00:40:49.244Z,83.27
2017-04-24T00:41:30.122Z,83.46
2017-04-24T00:42:11.012Z,83.55
2017-04-24T00:42:51.894Z,83.27
2017-04-24T00:43:32.764Z,82.7
2017-04-24T00:44:13.629Z,82.79
2017-04-24T00:44:54.503Z,82.89
2017-04-24T00:45:35.389Z,82.98
2017-04-24T00:46:16.284Z,82.89
2017-04-24T00:46:57.151Z,82.79
2017-04-24T00:47:38.027Z,82.79
2017-04-24T00:48:18.898Z,82.51
2017-04-24T00:48:59.777Z,82.23
2017-04-24T00:49:40.664Z,81.75
2017-04-24T00:50:21.550Z,81.85
2017-04-24T00:51:02.438Z,82.32
2017-04-24T00:51:43.315Z,83.08
2017-04-24T00:52:24.184Z,82.42
2017-04-24T00:53:05.092Z,82.98
2017-04-24T00:53:45.941Z,83.08
2017-04-24T00:54:26.814Z,82.42
2017-04-24T00:55:07.685Z,82.51
2017-04-24T00:55:48.565Z,83.08
2017-04-24T00:56:29.451Z,82.89
2017-04-24T00:57:10.331Z,83.08
2017-04-24T00:57:51.202Z,83.08
2017-04-24T00:58:32.073Z,82.6
2017-04-24T00:59:12.954Z,82.89
2017-04-24T00:59:53.837Z,82.89
2017-04-24T01:00:34.718Z,82.98
2017-04-24T01:01:15.577Z,82.79
2017-04-24T01:01:56.452Z,82.13
2017-04-24T01:02:37.320Z,82.89
2017-04-24T01:03:18.195Z,83.08
2017-04-24T01:03:59.079Z,83.65
2017-04-24T01:04:39.971Z,83.27
2017-04-24T01:05:20.832Z,84.12
2017-04-24T01:06:01.705Z,84.98
2017-04-24T01:06:42.563Z,84.69
2017-04-24T01:07:23.450Z,84.69
2017-04-24T01:08:04.333Z,84.41
2017-04-24T01:08:45.214Z,84.88
2017-04-24T01:09:26.081Z,84.03
2017-04-24T01:10:06.973Z,83.46
2017-04-24T01:10:47.820Z,83.55
2017-04-24T01:11:28.705Z,82.79
2017-04-24T01:12:09.576Z,83.46
2017-04-24T01:12:50.488Z,83.46
2017-04-24T01:13:31.353Z,83.27
2017-04-24T01:14:12.235Z,83.94
2017-04-24T01:14:53.139Z,84.12
2017-04-24T01:15:34.001Z,84.31
2017-04-24T01:16:14.862Z,84.31
2017-04-24T01:16:55.727Z,84.88
2017-04-24T01:17:36.597Z,84.88
2017-04-24T01:18:17.479Z,84.98
2017-04-24T01:18:58.374Z,84.78
2017-04-24T01:19:39.246Z,84.69
2017-04-24T01:20:20.111Z,84.59
2017-04-24T01:21:00.980Z,84.41
2017-04-24T01:21:41.845Z,84.78
2017-04-24T01:22:22.706Z,84.59
2017-04-24T01:23:03.588Z,84.88
2017-04-24T01:23:44.477Z,84.31
2017-04-24T01:24:25.354Z,84.88
2017-04-24T01:25:06.223Z,84.31
2017-04-24T01:25:47.096Z,84.88
2017-04-24T01:26:27.979Z,84.88
2017-04-24T01:27:08.875Z,84.69
2017-04-24T01:27:49.743Z,84.88
2017-04-24T01:28:30.608Z,84.88
2017-04-24T01:29:11.476Z,84.78
2017-04-24T01:29:52.336Z,84.31
2017-04-24T01:30:33.269Z,84.41
2017-04-24T01:31:14.143Z,84.69
2017-04-24T01:31:55.001Z,84.22
2017-04-24T01:32:35.867Z,84.59
2017-04-24T01:33:16.733Z,84.41
2017-04-24T01:33:57.626Z,84.59
2017-04-24T01:34:38.508Z,84.78
2017-04-24T01:35:19.390Z,84.88
2017-04-24T01:36:00.256Z,84.88
2017-04-24T01:36:41.214Z,85.17
2017-04-24T01:37:22.077Z,85.36
2017-04-24T01:38:02.945Z,85.93
2017-04-24T01:38:43.803Z,85.07
2017-04-24T01:39:24.680Z,85.36
2017-04-24T01:40:05.553Z,85.55
2017-04-24T01:40:46.434Z,85.97
2017-04-24T01:41:27.303Z,86.11
2017-04-24T01:42:08.175Z,86.3
2017-04-24T01:42:49.042Z,86.02
2017-04-24T01:43:29.913Z,85.55
2017-04-24T01:44:10.796Z,85.74
2017-04-24T01:44:51.682Z,85.45
2017-04-24T01:45:32.564Z,85.64
2017-04-24T01:46:13.429Z,85.45
2017-04-24T01:46:54.279Z,85.07
2017-04-24T01:47:35.218Z,85.17
2017-04-24T01:48:16.100Z,85.55
2017-04-24T01:48:56.961Z,85.45
2017-04-24T01:49:37.824Z,85.45
2017-04-24T01:50:18.689Z,85.74
2017-04-24T01:50:59.562Z,85.74
2017-04-24T01:51:40.469Z,85.78
2017-04-24T01:52:21.349Z,86.07
2017-04-24T01:53:02.209Z,86.21
2017-04-24T01:53:43.068Z,86.16
2017-04-24T01:54:23.950Z,85.97
2017-04-24T01:55:04.812Z,86.26
2017-04-24T01:55:45.692Z,86.21
2017-04-24T01:56:26.566Z,86.07
2017-04-24T01:57:07.444Z,86.07
2017-04-24T01:57:48.314Z,86.21
2017-04-24T01:58:29.168Z,85.55
2017-04-24T01:59:10.037Z,85.26
2017-04-24T01:59:50.887Z,85.45
2017-04-24T02:00:31.762Z,85.41
2017-04-24T02:01:12.635Z,85.36
2017-04-24T02:01:53.537Z,85.64
2017-04-24T02:02:34.418Z,85.64
2017-04-24T02:03:15.283Z,86.16
2017-04-24T02:03:56.150Z,86.21
2017-04-24T02:04:37.006Z,86.07
2017-04-24T02:05:17.868Z,86.07
2017-04-24T02:05:58.714Z,86.3
2017-04-24T02:06:39.586Z,85.74
2017-04-24T02:07:20.448Z,85.45
2017-04-24T02:08:01.314Z,86.4
2017-04-24T02:08:42.209Z,86.55
2017-04-24T02:09:23.093Z,86.55
2017-04-24T02:10:03.952Z,86.55
2017-04-24T02:10:44.833Z,86.55
2017-04-24T02:11:25.739Z,86.49
2017-04-24T02:12:06.624Z,86.21
2017-04-24T02:12:47.504Z,86.4
2017-04-24T02:13:28.370Z,85.97
2017-04-24T02:14:09.250Z,86.26
2017-04-24T02:14:50.125Z,85.78
2017-04-24T02:15:31.012Z,86.21
2017-04-24T02:16:11.880Z,86.21
2017-04-24T02:16:52.755Z,85.97
2017-04-24T02:17:33.627Z,85.97
2017-04-24T02:18:14.518Z,85.97
2017-04-24T02:18:55.403Z,86.21
2017-04-24T02:19:36.307Z,86.35
2017-04-24T02:20:17.185Z,86.35
2017-04-24T02:20:58.078Z,86.26
2017-04-24T02:21:38.962Z,86.16
2017-04-24T02:22:19.834Z,86.45
2017-04-24T02:23:00.711Z,86.21
2017-04-24T02:23:41.585Z,85.55
2017-04-24T02:24:22.490Z,85.55
2017-04-24T02:25:03.352Z,85.17
2017-04-24T02:25:44.224Z,85.17
2017-04-24T02:26:25.089Z,85.26
2017-04-24T02:27:05.989Z,85.26
2017-04-24T02:27:46.867Z,85.26
2017-04-24T02:28:27.773Z,85.17
2017-04-24T02:29:08.653Z,85.26
2017-04-24T02:29:49.536Z,85.17
2017-04-24T02:30:30.411Z,85.07
2017-04-24T02:31:11.281Z,85.26
2017-04-24T02:31:52.155Z,85.83
2017-04-24T02:32:33.040Z,84.98
2017-04-24T02:33:13.930Z,85.36
2017-04-24T02:33:54.809Z,85.45
2017-04-24T02:34:35.679Z,85.26
2017-04-24T02:35:16.610Z,85.55
2017-04-24T02:35:57.424Z,85.55
2017-04-24T02:36:38.309Z,85.45
2017-04-24T02:38:36.830Z,85.45
2017-04-24T02:39:17.699Z,85.36
2017-04-24T02:39:58.563Z,85.55
2017-04-24T02:40:39.472Z,85.17
2017-04-24T02:41:20.330Z,85.93
2017-04-24T02:42:01.206Z,85.36
2017-04-24T02:42:42.069Z,85.07
2017-04-24T02:43:22.936Z,85.17
2017-04-24T02:44:03.799Z,86.49
2017-04-24T02:44:44.669Z,85.93
2017-04-24T02:45:25.560Z,86.11
2017-04-24T02:46:06.434Z,86.3
2017-04-24T02:46:47.314Z,85.36
2017-04-24T02:47:28.189Z,85.36
2017-04-24T02:48:09.159Z,85.45
2017-04-24T02:48:50.045Z,85.36
2017-04-24T02:49:30.933Z,85.45
2017-04-24T02:50:11.812Z,85.36
2017-04-24T02:50:52.694Z,85.07
2017-04-24T02:51:33.586Z,85.74
2017-04-24T02:52:14.460Z,85.93
2017-04-24T02:52:55.333Z,86.49
2017-04-24T02:53:36.210Z,86.3
2017-04-24T02:54:17.075Z,85.93
2017-04-24T02:54:57.949Z,85.36
2017-04-24T02:55:38.827Z,85.45
2017-04-24T02:56:19.712Z,85.26
2017-04-24T02:57:00.588Z,85.17
2017-04-24T02:57:41.466Z,85.36
2017-04-24T02:58:22.341Z,85.17
2017-04-24T02:59:03.217Z,85.64
2017-04-24T02:59:44.110Z,85.55
2017-04-24T03:00:24.987Z,85.93
2017-04-24T03:01:05.847Z,85.93
2017-04-24T03:01:46.722Z,86.3
2017-04-24T03:02:27.594Z,85.83
2017-04-24T03:03:08.469Z,85.64
2017-04-24T03:03:49.350Z,85.45
2017-04-24T03:04:30.231Z,85.26
2017-04-24T03:05:11.097Z,85.17
2017-04-24T03:05:51.971Z,85.64
2017-04-24T03:06:32.859Z,85.64
2017-04-24T03:07:13.745Z,85.45
2017-04-24T03:07:54.610Z,84.78
2017-04-24T03:08:35.488Z,85.07
2017-04-24T03:09:16.362Z,84.98
2017-04-24T03:09:57.243Z,85.17
2017-04-24T03:10:38.109Z,84.98
2017-04-24T03:11:18.994Z,85.17
2017-04-24T03:11:59.871Z,84.59
2017-04-24T03:12:40.740Z,84.88
2017-04-24T03:13:21.612Z,84.69
2017-04-24T03:14:02.497Z,85.17
2017-04-24T03:14:43.374Z,85.41
2017-04-24T03:15:24.242Z,86.16
2017-04-24T03:16:05.108Z,86.16
2017-04-24T03:16:45.986Z,86.16
2017-04-24T03:17:26.854Z,86.16
2017-04-24T03:18:07.748Z,85.93
2017-04-24T03:18:48.639Z,86.21
2017-04-24T03:19:29.492Z,85.83
2017-04-24T03:20:10.354Z,85.45
2017-04-24T03:20:51.227Z,85.64
2017-04-24T03:21:32.111Z,85.26
2017-04-24T03:22:13.018Z,85.45
2017-04-24T03:22:53.917Z,85.17
2017-04-24T03:23:34.783Z,84.69
2017-04-24T03:24:15.641Z,84.88
2017-04-24T03:24:56.492Z,84.88
2017-04-24T03:25:37.359Z,85.93
2017-04-24T03:26:18.255Z,85.78
2017-04-24T03:26:59.127Z,86.16
2017-04-24T03:27:39.996Z,86.35
2017-04-24T03:28:20.856Z,87.3
2017-04-24T03:29:01.735Z,87.12
2017-04-24T03:29:42.594Z,86.74
2017-04-24T03:30:23.469Z,86.21
2017-04-24T03:31:04.346Z,86.4
2017-04-24T03:31:45.212Z,85.17
2017-04-24T03:32:26.091Z,85.17
2017-04-24T03:33:06.966Z,85.17
2017-04-24T03:33:47.851Z,85.26
2017-04-24T03:34:28.719Z,85.55
2017-04-24T03:35:09.582Z,85.69
2017-04-24T03:35:50.466Z,86.3
2017-04-24T03:36:31.347Z,85.45
2017-04-24T03:37:12.227Z,85.74
2017-04-24T03:37:53.117Z,85.26
2017-04-24T03:38:34.039Z,85.07
2017-04-24T03:39:14.910Z,85.17
2017-04-24T03:39:55.818Z,85.74
2017-04-24T03:40:36.696Z,85.55
2017-04-24T03:41:17.563Z,85.17
2017-04-24T03:41:58.433Z,85.36
2017-04-24T03:42:39.303Z,85.74
2017-04-24T03:43:20.174Z,85.17
2017-04-24T03:44:01.045Z,85.31
2017-04-24T03:44:41.924Z,85.97
2017-04-24T03:45:22.803Z,86.45
2017-04-24T03:46:03.681Z,86.11
2017-04-24T03:46:44.546Z,86.21
2017-04-24T03:47:25.401Z,86.02
2017-04-24T03:48:06.279Z,86.11
2017-04-24T03:48:47.143Z,86.3
2017-04-24T03:49:28.030Z,86.21
2017-04-24T03:50:08.907Z,85.45
2017-04-24T03:50:49.779Z,85.64
2017-04-24T03:51:30.642Z,85.64
2017-04-24T03:52:11.491Z,85.83
2017-04-24T03:52:52.366Z,86.4
2017-04-24T03:53:33.221Z,86.11
2017-04-24T03:54:14.105Z,86.02
2017-04-24T03:54:54.994Z,86.59
2017-04-24T03:55:35.870Z,86.55
2017-04-24T03:56:16.742Z,86.68
2017-04-24T03:56:57.601Z,87.25
2017-04-24T03:57:38.465Z,87.21
2017-04-24T03:58:19.328Z,87.49
2017-04-24T03:59:00.183Z,88.16
2017-04-24T03:59:41.044Z,87.87
2017-04-24T04:00:21.933Z,88.06
2017-04-24T04:01:02.817Z,88.06
2017-04-24T04:01:43.701Z,87.4
2017-04-24T04:02:24.563Z,87.59
2017-04-24T04:03:05.419Z,88.06
2017-04-24T04:03:46.286Z,88.06
2017-04-24T04:04:27.149Z,88.25
2017-04-24T04:05:08.006Z,87.77
2017-04-24T04:05:48.901Z,88.16
2017-04-24T04:06:29.807Z,88.16
2017-04-24T04:07:10.688Z,88.44
2017-04-24T04:07:51.570Z,88.73
2017-04-24T04:08:32.460Z,89.2
2017-04-24T04:09:13.341Z,89.01
2017-04-24T04:09:54.247Z,89.11
2017-04-24T04:10:35.134Z,88.54
2017-04-24T04:11:16.011Z,88.44
2017-04-24T04:11:56.878Z,88.73
2017-04-24T04:12:37.748Z,88.25
2017-04-24T04:13:18.626Z,88.44
2017-04-24T04:13:59.482Z,89.01
2017-04-24T04:14:40.351Z,89.48
2017-04-24T04:15:21.241Z,89.96
2017-04-24T04:16:02.131Z,89.77
2017-04-24T04:16:42.997Z,89.58
2017-04-24T04:17:23.847Z,89.86
2017-04-24T04:18:04.717Z,89.77
2017-04-24T04:18:45.582Z,89.67
2017-04-24T04:19:26.502Z,90.24
2017-04-24T04:20:07.376Z,91.19
2017-04-24T04:20:48.230Z,91.57
2017-04-24T04:21:29.132Z,91.57
2017-04-24T04:22:10.019Z,91.85
2017-04-24T04:22:50.961Z,92.04
2017-04-24T04:24:29.880Z,91.28
2017-04-24T04:25:12.412Z,90.81
2017-04-24T04:25:53.285Z,90.91
2017-04-24T04:26:34.155Z,91
2017-04-24T04:27:15.020Z,91.28
2017-04-24T04:27:55.904Z,92.33
2017-04-24T04:28:36.804Z,91.76
2017-04-24T04:29:17.688Z,91.19
2017-04-24T04:29:58.563Z,91.47
2017-04-24T04:30:39.516Z,90.91
2017-04-24T04:31:20.593Z,91
2017-04-24T04:32:01.482Z,90.53
2017-04-24T04:32:44.281Z,91.09
2017-04-24T04:33:26.794Z,91.19
2017-04-24T04:34:07.672Z,91.47
2017-04-24T04:34:48.555Z,90.62
2017-04-24T04:35:29.415Z,90.34
2017-04-24T04:36:10.290Z,89.96
2017-04-24T04:36:51.163Z,90.34
2017-04-24T04:37:32.071Z,90.43
2017-04-24T04:38:12.970Z,90.05
2017-04-24T04:38:53.868Z,90.05
2017-04-24T04:39:34.746Z,90.43
2017-04-24T04:40:15.621Z,90.53
2017-04-24T04:40:56.512Z,89.96
2017-04-24T04:41:37.402Z,89.96
2017-04-24T04:42:18.262Z,89.77
2017-04-24T04:42:59.138Z,89.96
2017-04-24T04:43:40.010Z,89.67
2017-04-24T04:44:20.890Z,89.77
2017-04-24T04:45:01.761Z,89.29
2017-04-24T04:45:42.754Z,89.2
2017-04-24T04:46:23.623Z,89.11
2017-04-24T04:47:04.491Z,89.11
2017-04-24T04:47:45.366Z,89.58
2017-04-24T04:48:26.286Z,89.2
2017-04-24T04:49:07.165Z,88.92
2017-04-24T04:49:48.047Z,89.11
2017-04-24T04:50:28.910Z,89.48
2017-04-24T04:51:09.861Z,89.48
2017-04-24T04:51:50.729Z,89.2
2017-04-24T04:52:31.623Z,89.29
2017-04-24T04:53:12.505Z,89.39
2017-04-24T04:53:53.383Z,89.2
2017-04-24T04:54:34.261Z,89.11
2017-04-24T04:55:15.131Z,89.48
2017-04-24T04:55:56.013Z,89.11
2017-04-24T04:56:36.890Z,89.11
2017-04-24T04:57:17.767Z,89.29
2017-04-24T04:57:58.688Z,89.29
2017-04-24T04:58:42.151Z,89.39
2017-04-24T04:59:23.042Z,89.2
2017-04-24T05:00:03.943Z,89.86
2017-04-24T05:00:46.641Z,89.48
2017-04-24T05:01:27.552Z,90.53
2017-04-24T05:02:08.431Z,89.96
2017-04-24T05:02:49.325Z,90.53
2017-04-24T05:03:30.200Z,89.77
2017-04-24T05:04:11.097Z,89.77
2017-04-24T05:04:51.997Z,89.29
2017-04-24T05:05:32.892Z,89.48
2017-04-24T05:06:13.770Z,89.48
2017-04-24T05:06:54.648Z,89.2
2017-04-24T05:07:35.577Z,89.11
2017-04-24T05:08:16.481Z,89.11
2017-04-24T05:08:57.373Z,89.48
2017-04-24T05:09:38.265Z,89.11
2017-04-24T05:10:19.124Z,89.29
2017-04-24T05:11:00.007Z,88.92
2017-04-24T05:11:40.876Z,89.2
2017-04-24T05:12:21.759Z,89.11
2017-04-24T05:13:02.621Z,88.73
2017-04-24T05:13:43.485Z,88.16
2017-04-24T05:14:24.386Z,88.73
2017-04-24T05:15:05.276Z,88.44
2017-04-24T05:15:46.135Z,88.44
2017-04-24T05:16:27.006Z,87.97
2017-04-24T05:17:07.893Z,88.29
2017-04-24T05:17:48.773Z,87.49
2017-04-24T05:18:29.659Z,88.25
2017-04-24T05:19:10.527Z,88.73
2017-04-24T05:19:51.638Z,89.29
2017-04-24T05:21:19.713Z,89.11
2017-04-24T05:22:00.584Z,88.58
2017-04-24T05:22:41.463Z,87.92
2017-04-24T05:23:22.342Z,87.97
2017-04-24T05:24:03.195Z,87.87
2017-04-24T05:24:44.067Z,88.06
2017-04-24T05:25:24.950Z,87.45
2017-04-24T05:26:05.835Z,87.25
2017-04-24T05:26:46.719Z,87.49
2017-04-24T05:27:27.591Z,88.1
2017-04-24T05:28:08.456Z,87.25
2017-04-24T05:28:49.332Z,87.06
2017-04-24T05:29:30.214Z,87.87
2017-04-24T05:30:11.132Z,88.48
2017-04-24T05:30:52.016Z,88.77
2017-04-24T05:31:32.902Z,88.1
2017-04-24T05:32:13.795Z,88.29
2017-04-24T05:32:54.704Z,88.29
2017-04-24T05:33:35.647Z,88.58
2017-04-24T05:34:16.613Z,87.97
2017-04-24T05:34:57.530Z,88.63
2017-04-24T05:35:39.314Z,89.2
2017-04-24T05:36:20.225Z,89.86
2017-04-24T05:37:01.102Z,89.48
2017-04-24T05:37:41.975Z,89.58
2017-04-24T05:38:22.860Z,89.39
2017-04-24T05:39:03.739Z,89.39
2017-04-24T05:41:59.769Z,88.29
2017-04-24T05:42:40.711Z,88.48
2017-04-24T05:43:21.757Z,88.2
2017-04-24T05:44:02.702Z,88.2
2017-04-24T05:44:43.619Z,88.1
2017-04-24T05:47:19.250Z,87.73
2017-04-24T05:48:01.428Z,87.92
2017-04-24T05:48:43.144Z,88.48
2017-04-24T05:56:46.982Z,86.97
2017-04-24T05:57:27.871Z,86.59
2017-04-24T05:58:08.750Z,86.68
2017-04-24T05:58:49.675Z,86.44
2017-04-24T05:59:30.709Z,86.68
2017-04-24T06:00:11.595Z,86.59
2017-04-24T06:02:15.315Z,86.07
2017-04-24T06:06:52.085Z,84.64
2017-04-24T06:07:32.957Z,84.36
2017-04-24T06:08:13.819Z,84.26
2017-04-24T06:08:54.705Z,84.83
2017-04-24T06:09:35.584Z,84.36
2017-04-24T06:10:16.471Z,83.69
2017-04-24T06:10:57.363Z,83.31
2017-04-24T06:11:38.223Z,83.12
2017-04-24T06:12:19.087Z,83.12
2017-04-24T06:12:59.945Z,82.93
2017-04-24T06:13:40.807Z,82.93
2017-04-24T06:14:21.687Z,83.22
2017-04-24T06:15:02.576Z,82.74
2017-04-24T06:15:43.453Z,82.84
2017-04-24T06:16:24.320Z,82.93
2017-04-24T06:18:02.778Z,83.31
2017-04-24T06:18:43.666Z,83.69
2017-04-24T06:19:24.546Z,83.59
2017-04-24T06:20:05.422Z,83.4
2017-04-24T06:20:46.298Z,83.59
2017-04-24T06:21:27.198Z,83.4
2017-04-24T06:22:08.092Z,83.59
2017-04-24T06:22:48.981Z,83.78
2017-04-24T06:23:29.871Z,84.17
2017-04-24T06:24:10.743Z,84.45
2017-04-24T06:24:51.622Z,83.97
2017-04-24T06:25:32.486Z,83.78
2017-04-24T06:26:13.350Z,83.22
2017-04-24T06:26:54.231Z,83.69
2017-04-24T06:27:35.117Z,83.31
2017-04-24T06:28:15.999Z,83.12
2017-04-24T06:28:56.884Z,83.5
2017-04-24T06:29:37.739Z,83.59
2017-04-24T06:30:18.597Z,83.59
2017-04-24T06:30:59.474Z,83.45
2017-04-24T06:31:40.347Z,82.21
2017-04-24T06:32:21.226Z,82.21
2017-04-24T06:33:02.101Z,81.74
2017-04-24T06:33:42.973Z,81.07
2017-04-24T06:34:23.910Z,81.55
2017-04-24T06:35:04.782Z,81.65
2017-04-24T06:35:45.662Z,80.98
2017-04-24T06:36:26.830Z,80.88
2017-04-24T06:37:07.712Z,80.98
2017-04-24T06:37:48.597Z,80.6
2017-04-24T06:38:29.478Z,81.17
2017-04-24T06:39:10.349Z,80.88
2017-04-24T06:39:51.224Z,80.98
2017-04-24T06:40:32.113Z,80.98
2017-04-24T06:41:13.002Z,81.07
2017-04-24T06:41:53.873Z,80.79
2017-04-24T06:42:34.770Z,80.69
2017-04-24T06:43:15.629Z,80.6
2017-04-24T06:43:56.503Z,80.69
2017-04-24T06:44:37.382Z,80.13
2017-04-24T06:45:18.332Z,80.03
2017-04-24T06:45:59.223Z,80.13
2017-04-24T06:46:40.085Z,80.13
2017-04-24T06:47:20.961Z,79.84
2017-04-24T06:48:01.846Z,78.99
2017-04-24T06:48:42.731Z,79.03
2017-04-24T06:49:23.621Z,79.12
2017-04-24T06:50:04.494Z,78.83
2017-04-24T06:50:45.379Z,78.17
2017-04-24T06:51:26.271Z,78.55
2017-04-24T06:52:07.137Z,77.89
2017-04-24T06:52:48.005Z,78.08
2017-04-24T06:53:28.881Z,78.27
2017-04-24T06:54:09.765Z,77.7
2017-04-24T06:54:50.657Z,78.17
2017-04-24T06:56:49.513Z,77.89
2017-04-24T06:57:30.390Z,77.31
2017-04-24T06:58:11.269Z,76.59
2017-04-24T06:58:52.156Z,75.36
2017-04-24T06:59:33.047Z,74.26
2017-04-24T07:00:13.938Z,71.82
2017-04-24T07:00:54.828Z,70.2
2017-04-24T07:01:35.721Z,69.38
2017-04-24T07:02:16.563Z,68.43
2017-04-24T07:02:57.448Z,67.32
2017-04-24T07:03:38.347Z,65.99
2017-04-24T07:04:19.261Z,65.42
2017-04-24T07:05:00.147Z,65.8
2017-04-24T07:05:41.038Z,65.99
2017-04-24T07:06:21.924Z,65.23
2017-04-24T07:07:02.813Z,64.84
2017-04-24T07:07:43.694Z,64.94
2017-04-24T07:08:24.591Z,64.81
2017-04-24T07:09:05.464Z,65.77
2017-04-24T07:09:46.351Z,65.77
2017-04-24T07:10:27.287Z,66.24
2017-04-24T07:11:08.178Z,66.43
2017-04-24T07:11:49.057Z,67.1
2017-04-24T07:12:29.945Z,66.91
2017-04-24T07:13:10.827Z,67.25
2017-04-24T07:13:51.733Z,68.01
2017-04-24T07:14:32.605Z,67.76
2017-04-24T07:15:13.482Z,67.19
2017-04-24T07:15:54.376Z,67.1
2017-04-24T07:16:35.255Z,65.77
2017-04-24T07:17:16.139Z,65.89
2017-04-24T07:17:57.025Z,65.42
2017-04-24T07:18:37.914Z,65.13
2017-04-24T07:19:18.798Z,65.48
2017-04-24T07:19:59.689Z,65.58
2017-04-24T07:20:40.583Z,65.58
2017-04-24T07:21:21.470Z,65.95
2017-04-24T07:22:02.350Z,65.7
2017-04-24T07:22:43.234Z,65
2017-04-24T07:23:24.119Z,65.77
2017-04-24T07:24:05.075Z,65.67
2017-04-24T07:24:45.963Z,65.77
2017-04-24T07:25:26.839Z,64.75
2017-04-24T07:26:07.726Z,63.89
2017-04-24T07:26:48.615Z,63.7
2017-04-24T07:27:29.495Z,63.92
2017-04-24T07:28:10.384Z,63.26
2017-04-24T07:28:51.280Z,62.3
2017-04-24T07:29:32.172Z,62.21
2017-04-24T07:30:13.050Z,61.73
2017-04-24T07:30:53.943Z,61.73
2017-04-24T07:31:34.832Z,61.19
2017-04-24T07:32:15.722Z,60.81
2017-04-24T07:32:56.613Z,60.24
2017-04-24T07:33:37.503Z,59
2017-04-24T07:34:18.389Z,59.09
2017-04-24T07:34:59.285Z,58.94
2017-04-24T07:35:40.173Z,58.26
2017-04-24T07:36:21.066Z,57.41
2017-04-24T07:37:01.976Z,57.53
2017-04-24T07:37:42.862Z,56.67
2017-04-24T07:38:23.752Z,56.84
2017-04-24T07:39:04.661Z,57.24
2017-04-24T07:39:45.523Z,57.5
2017-04-24T07:40:26.479Z,58.17
2017-04-24T07:41:07.392Z,56.84
2017-04-24T07:41:48.280Z,56.2
2017-04-24T07:42:29.181Z,56.17
2017-04-24T07:43:10.068Z,55.34
2017-04-24T07:43:50.955Z,55.41
2017-04-24T07:44:31.860Z,56.2
2017-04-24T07:45:12.738Z,55.79
2017-04-24T07:45:53.606Z,55.15
2017-04-24T07:46:34.526Z,55.88
2017-04-24T07:47:15.392Z,56.74
2017-04-24T07:47:56.281Z,56.38
2017-04-24T07:48:37.165Z,55.62
2017-04-24T07:49:18.057Z,55.43
2017-04-24T07:49:58.945Z,55.34
2017-04-24T07:50:39.835Z,55.46
2017-04-24T07:51:20.723Z,54.89
2017-04-24T07:52:01.618Z,54.22
2017-04-24T07:52:42.521Z,53.62
2017-04-24T07:53:23.409Z,54.6
2017-04-24T07:54:04.294Z,55.27
2017-04-24T07:54:45.183Z,54.6
2017-04-24T07:55:26.193Z,53.74
2017-04-24T07:56:07.092Z,53.43
2017-04-24T07:56:47.985Z,53.41
2017-04-24T07:57:28.875Z,54.14
2017-04-24T07:58:09.764Z,55.28
2017-04-24T07:58:50.667Z,55.6
2017-04-24T07:59:31.563Z,55.24
2017-04-24T08:00:12.459Z,55.43
2017-04-24T08:00:53.347Z,54.41
2017-04-24T08:01:34.269Z,53.45
2017-04-24T08:02:15.166Z,52.95
2017-04-24T08:08:57.344Z,52.73
2017-04-24T08:10:53.707Z,54.8
2017-04-24T08:11:34.598Z,55.19
2017-04-24T08:12:15.505Z,54.36
2017-04-24T08:12:56.396Z,54.38
2017-04-24T08:13:37.319Z,52.76
2017-04-24T08:14:18.221Z,52.38
2017-04-24T08:14:59.105Z,52.28
2017-04-24T08:15:39.993Z,51.64
2017-04-24T08:16:20.886Z,51.83
2017-04-24T08:17:01.770Z,50.81
2017-04-24T08:17:42.653Z,53.67
2017-04-24T08:18:23.545Z,52.48
2017-04-24T08:19:04.430Z,50.95
2017-04-24T08:19:45.317Z,50.16
2017-04-24T08:20:26.203Z,49.49
2017-04-24T08:21:07.106Z,49.47
2017-04-24T08:21:47.986Z,50.33
2017-04-24T08:22:28.888Z,50.69
2017-04-24T08:23:09.769Z,51.83
2017-04-24T08:23:50.674Z,51.52
2017-04-24T08:24:31.610Z,52.28
2017-04-24T08:25:12.480Z,52.86
2017-04-24T08:25:53.377Z,51.81
2017-04-24T08:26:34.275Z,51.71
2017-04-24T08:27:15.157Z,51.54
2017-04-24T08:27:56.056Z,51.33
2017-04-24T08:28:36.936Z,51.52
2017-04-24T08:29:18.004Z,51.9
2017-04-24T08:31:31.769Z,51.71
2017-04-24T08:32:12.651Z,51.78
2017-04-24T08:32:53.616Z,53.02
2017-04-24T08:33:34.411Z,54.24
2017-04-24T08:34:15.301Z,55.19
2017-04-24T08:34:56.162Z,55.28
2017-04-24T08:35:37.052Z,55.57
2017-04-24T08:36:17.955Z,55.31
2017-04-24T08:36:58.847Z,55.21
2017-04-24T08:37:39.766Z,54.55
2017-04-24T08:38:20.733Z,56.2
2017-04-24T08:39:01.648Z,54.36
2017-04-24T08:39:42.539Z,54.17
2017-04-24T08:40:23.483Z,54.17
2017-04-24T08:41:04.361Z,55.21
2017-04-24T08:41:45.250Z,55.18
2017-04-24T08:42:26.148Z,53.17
2017-04-24T08:43:07.045Z,51.86
2017-04-24T08:43:47.927Z,51.45
2017-04-24T08:44:28.817Z,51.45
2017-04-24T08:45:09.702Z,51.26
2017-04-24T08:45:50.590Z,52.72
2017-04-24T08:46:31.593Z,51.67
2017-04-24T08:47:12.368Z,51.45
2017-04-24T08:47:53.265Z,52.03
2017-04-24T08:48:34.155Z,52.62
2017-04-24T08:49:15.056Z,52.05
2017-04-24T08:49:55.949Z,52.43
2017-04-24T08:50:36.928Z,51.76
2017-04-24T08:51:17.826Z,51.57
2017-04-24T08:51:58.768Z,51.09
2017-04-24T08:52:39.670Z,50.16
2017-04-24T08:53:20.572Z,49.43
2017-04-24T08:54:01.440Z,48.57
2017-04-24T08:54:42.347Z,48.18
2017-04-24T08:55:23.239Z,48.02
2017-04-24T08:56:04.156Z,47.42
2017-04-24T08:56:45.059Z,47.42
2017-04-24T08:57:25.967Z,46.77
2017-04-24T08:58:06.869Z,46.96
2017-04-24T08:58:48.147Z,46.39
2017-04-24T08:59:29.023Z,47.16
2017-04-24T09:00:09.927Z,46.3
2017-04-24T09:00:50.820Z,46.66
2017-04-24T09:01:31.714Z,45.91
2017-04-24T09:02:12.609Z,45.89
2017-04-24T09:02:53.491Z,46.56
2017-04-24T09:03:34.383Z,46.1
2017-04-24T09:04:15.291Z,46.96
2017-04-24T09:04:56.191Z,46.01
2017-04-24T09:05:37.083Z,45.81
2017-04-24T09:06:17.983Z,44.29
2017-04-24T09:06:58.875Z,45.05
2017-04-24T09:07:39.777Z,45.15
2017-04-24T09:08:20.657Z,45.91
2017-04-24T09:10:15.433Z,45.91
2017-04-24T09:10:56.337Z,45.84
2017-04-24T09:11:37.224Z,45.84
2017-04-24T09:12:18.101Z,45.62
2017-04-24T09:12:58.989Z,47.06
2017-04-24T09:13:39.876Z,47.82
2017-04-24T09:14:20.769Z,48.3
2017-04-24T09:15:01.663Z,47.16
2017-04-24T09:15:42.570Z,46.94
2017-04-24T09:16:23.521Z,47.37
2017-04-24T09:17:04.400Z,48.35
2017-04-24T09:17:45.306Z,47.87
2017-04-24T09:18:26.186Z,47.39
2017-04-24T09:19:07.080Z,47.78
2017-04-24T09:19:47.971Z,48.07
2017-04-24T09:20:28.878Z,47.78
2017-04-24T09:21:09.768Z,47.47
2017-04-24T09:21:50.681Z,47.94